createdAt,value
2023-04-16T00:00:08.112Z,81.80
2023-04-16T00:01:08.139Z,76.45
2023-04-16T00:02:08.190Z,82.43
2023-04-16T00:03:08.308Z,82.59
2023-04-16T00:04:08.287Z,79.04
2023-04-16T00:05:08.264Z,83.67
2023-04-16T00:06:08.240Z,80.40
2023-04-16T00:07:08.246Z,80.24
2023-04-16T00:08:08.250Z,83.00
2023-04-16T00:09:08.492Z,83.87
2023-04-16T00:10:08.274Z,83.69
2023-04-16T00:11:08.288Z,83.03
2023-04-16T00:12:08.305Z,83.30
2023-04-16T00:13:08.316Z,80.39
2023-04-16T00:14:08.328Z,83.79
2023-04-16T00:15:08.343Z,82.50
2023-04-16T00:16:08.367Z,79.72
2023-04-16T00:17:08.472Z,81.24
2023-04-16T00:18:08.391Z,78.40
2023-04-16T00:19:08.555Z,80.60
2023-04-16T00:20:08.425Z,77.91
2023-04-16T00:21:08.431Z,77.92
2023-04-16T00:22:08.458Z,83.08
2023-04-16T00:23:08.467Z,84.57
2023-04-16T00:24:08.489Z,77.47
2023-04-16T00:25:08.500Z,77.34
2023-04-16T00:26:08.537Z,82.12
2023-04-16T00:27:08.542Z,82.42
2023-04-16T00:28:09.511Z,78.47
2023-04-16T00:29:08.890Z,79.48
2023-04-16T00:30:08.618Z,82.20
2023-04-16T00:31:08.629Z,81.63
2023-04-16T00:32:08.779Z,81.65
2023-04-16T00:33:08.648Z,81.49
2023-04-16T00:34:08.696Z,81.05
2023-04-16T00:35:08.702Z,79.62
2023-04-16T00:36:08.725Z,79.92
2023-04-16T00:37:08.757Z,79.62
2023-04-16T00:38:08.800Z,79.28
2023-04-16T00:39:09.070Z,80.97
2023-04-16T00:40:08.851Z,81.14
2023-04-16T00:41:08.869Z,81.04
2023-04-16T00:42:08.905Z,81.19
2023-04-16T00:43:08.930Z,81.29
2023-04-16T00:44:08.976Z,80.41
2023-04-16T00:45:09.133Z,83.76
2023-04-16T00:46:09.042Z,81.38
2023-04-16T00:47:09.053Z,82.15
2023-04-16T00:48:09.073Z,83.35
2023-04-16T00:49:09.469Z,83.86
2023-04-16T00:50:09.122Z,78.92
2023-04-16T00:51:09.175Z,79.84
2023-04-16T00:52:09.191Z,82.59
2023-04-16T00:53:09.212Z,77.58
2023-04-16T00:54:09.233Z,83.24
2023-04-16T00:55:09.264Z,79.50
2023-04-16T00:56:09.303Z,77.58
2023-04-16T00:57:09.335Z,79.38
2023-04-16T00:58:09.360Z,83.21
2023-04-16T00:59:09.540Z,82.46
2023-04-16T01:00:09.412Z,78.16
2023-04-16T01:01:09.474Z,80.34
2023-04-16T01:02:09.589Z,81.10
2023-04-16T01:03:09.645Z,78.27
2023-04-16T01:04:09.638Z,80.67
2023-04-16T01:05:09.558Z,78.56
2023-04-16T01:06:09.619Z,77.68
2023-04-16T01:07:09.688Z,80.60
2023-04-16T01:08:09.652Z,82.71
2023-04-16T01:09:09.794Z,80.87
2023-04-16T01:10:09.711Z,79.32
2023-04-16T01:11:09.741Z,79.40
2023-04-16T01:12:09.785Z,76.05
2023-04-16T01:13:09.796Z,75.52
2023-04-16T01:14:09.836Z,81.09
2023-04-16T01:15:09.860Z,79.14
2023-04-16T01:16:09.945Z,78.56
2023-04-16T01:17:09.997Z,81.64
2023-04-16T01:18:09.958Z,80.44
2023-04-16T01:19:10.229Z,78.04
2023-04-16T01:20:10.016Z,80.31
2023-04-16T01:21:10.068Z,79.77
2023-04-16T01:22:10.103Z,79.92
2023-04-16T01:23:10.091Z,81.14
2023-04-16T01:24:10.136Z,77.78
2023-04-16T01:25:10.151Z,81.13
2023-04-16T01:26:10.188Z,80.89
2023-04-16T01:27:10.303Z,81.93
2023-04-16T01:28:10.295Z,82.58
2023-04-16T01:29:10.529Z,82.35
2023-04-16T01:30:10.350Z,81.41
2023-04-16T01:31:10.383Z,80.45
2023-04-16T01:32:10.413Z,84.51
2023-04-16T01:33:10.408Z,80.14
2023-04-16T01:34:10.454Z,81.15
2023-04-16T01:35:10.490Z,77.94
2023-04-16T01:36:10.522Z,80.78
2023-04-16T01:37:10.552Z,80.49
2023-04-16T01:38:10.583Z,78.87
2023-04-16T01:39:10.843Z,84.25
2023-04-16T01:40:10.659Z,79.71
2023-04-16T01:41:10.666Z,82.57
2023-04-16T01:42:10.705Z,81.61
2023-04-16T01:43:10.751Z,83.54
2023-04-16T01:44:10.766Z,79.72
2023-04-16T01:45:10.775Z,79.81
2023-04-16T01:46:10.806Z,80.44
2023-04-16T01:47:10.808Z,81.17
2023-04-16T01:48:10.829Z,83.55
2023-04-16T01:49:11.133Z,80.25
2023-04-16T01:50:10.853Z,82.68
2023-04-16T01:51:10.897Z,82.61
2023-04-16T01:52:10.889Z,79.35
2023-04-16T01:53:10.902Z,78.82
2023-04-16T01:54:10.925Z,80.80
2023-04-16T01:55:10.934Z,79.34
2023-04-16T01:56:10.943Z,82.23
2023-04-16T01:57:10.974Z,77.05
2023-04-16T01:58:10.994Z,81.20
2023-04-16T01:59:11.102Z,79.24
2023-04-16T02:00:10.983Z,78.27
2023-04-16T02:01:11.074Z,78.93
2023-04-16T02:02:11.217Z,82.12
2023-04-16T02:03:11.098Z,84.47
2023-04-16T02:04:11.085Z,78.19
2023-04-16T02:05:11.046Z,78.77
2023-04-16T02:06:11.054Z,77.24
2023-04-16T02:07:11.064Z,81.37
2023-04-16T02:08:11.070Z,76.69
2023-04-16T02:09:11.218Z,80.59
2023-04-16T02:10:11.114Z,80.38
2023-04-16T02:11:11.132Z,81.36
2023-04-16T02:12:11.180Z,83.13
2023-04-16T02:13:11.189Z,80.56
2023-04-16T02:14:11.231Z,84.58
2023-04-16T02:15:11.269Z,82.67
2023-04-16T02:16:11.354Z,82.09
2023-04-16T02:17:11.345Z,81.28
2023-04-16T02:18:11.372Z,78.71
2023-04-16T02:19:11.495Z,79.76
2023-04-16T02:20:11.453Z,81.57
2023-04-16T02:21:11.493Z,78.20
2023-04-16T02:22:11.503Z,81.74
2023-04-16T02:23:11.538Z,76.85
2023-04-16T02:24:11.571Z,78.35
2023-04-16T02:25:11.612Z,80.11
2023-04-16T02:26:11.625Z,79.18
2023-04-16T02:27:11.757Z,80.60
2023-04-16T02:28:11.752Z,74.71
2023-04-16T02:29:11.903Z,78.97
2023-04-16T02:30:11.766Z,77.77
2023-04-16T02:31:11.801Z,78.07
2023-04-16T02:32:11.938Z,77.88
2023-04-16T02:33:11.889Z,79.41
2023-04-16T02:34:11.796Z,78.40
2023-04-16T02:35:11.874Z,80.82
2023-04-16T02:36:11.798Z,83.84
2023-04-16T02:37:11.801Z,81.06
2023-04-16T02:38:11.820Z,79.52
2023-04-16T02:39:11.837Z,82.12
2023-04-16T02:40:11.840Z,84.98
2023-04-16T02:41:11.834Z,85.09
2023-04-16T02:42:11.845Z,85.34
2023-04-16T02:43:11.854Z,82.22
2023-04-16T02:44:11.851Z,81.67
2023-04-16T02:45:11.852Z,79.02
2023-04-16T02:46:11.919Z,84.23
2023-04-16T02:47:11.876Z,81.33
2023-04-16T02:48:11.894Z,85.18
2023-04-16T02:49:12.055Z,80.04
2023-04-16T02:50:11.946Z,79.57
2023-04-16T02:51:11.946Z,82.28
2023-04-16T02:52:13.283Z,81.06
2023-04-16T02:53:12.010Z,80.08
2023-04-16T02:54:12.027Z,81.46
2023-04-16T02:55:12.090Z,81.34
2023-04-16T02:56:11.981Z,80.74
2023-04-16T02:57:12.034Z,79.35
2023-04-16T02:58:12.107Z,78.63
2023-04-16T02:59:12.070Z,80.46
2023-04-16T03:00:12.068Z,76.51
2023-04-16T03:01:12.126Z,82.26
2023-04-16T03:02:12.075Z,77.94
2023-04-16T03:03:12.105Z,79.79
2023-04-16T03:04:12.058Z,78.27
2023-04-16T03:05:12.077Z,79.02
2023-04-16T03:06:12.096Z,82.42
2023-04-16T03:07:12.108Z,78.38
2023-04-16T03:08:12.114Z,75.77
2023-04-16T03:09:12.198Z,77.46
2023-04-16T03:10:12.107Z,79.05
2023-04-16T03:11:12.144Z,76.62
2023-04-16T03:12:12.123Z,80.42
2023-04-16T03:13:12.140Z,82.91
2023-04-16T03:14:12.149Z,78.65
2023-04-16T03:15:12.193Z,77.80
2023-04-16T03:16:12.225Z,78.52
2023-04-16T03:17:12.206Z,78.69
2023-04-16T03:18:12.216Z,77.35
2023-04-16T03:19:12.372Z,78.98
2023-04-16T03:20:12.294Z,81.63
2023-04-16T03:21:12.270Z,78.83
2023-04-16T03:22:12.268Z,74.92
2023-04-16T03:23:12.297Z,73.50
2023-04-16T03:24:12.296Z,80.13
2023-04-16T03:25:12.301Z,77.56
2023-04-16T03:26:12.333Z,78.66
2023-04-16T03:27:12.354Z,74.81
2023-04-16T03:28:12.355Z,79.62
2023-04-16T03:29:12.362Z,80.92
2023-04-16T03:30:12.380Z,79.75
2023-04-16T03:31:12.425Z,78.32
2023-04-16T03:32:12.402Z,71.50
2023-04-16T03:33:12.417Z,76.04
2023-04-16T03:34:12.425Z,71.54
2023-04-16T03:35:12.458Z,71.94
2023-04-16T03:36:12.476Z,72.84
2023-04-16T03:37:12.464Z,74.62
2023-04-16T03:38:12.484Z,75.57
2023-04-16T03:39:12.502Z,77.84
2023-04-16T03:40:12.514Z,80.85
2023-04-16T03:41:12.534Z,79.10
2023-04-16T03:42:12.553Z,76.35
2023-04-16T03:43:12.569Z,76.43
2023-04-16T03:44:12.589Z,77.45
2023-04-16T03:45:12.605Z,77.29
2023-04-16T03:46:12.640Z,77.35
2023-04-16T03:47:12.658Z,75.71
2023-04-16T03:48:12.648Z,72.44
2023-04-16T03:49:12.649Z,75.35
2023-04-16T03:50:12.665Z,76.45
2023-04-16T03:51:12.691Z,69.70
2023-04-16T03:52:12.689Z,57.59
2023-04-16T03:53:12.689Z,61.32
2023-04-16T03:54:12.712Z,55.81
2023-04-16T03:55:12.707Z,59.47
2023-04-16T03:56:12.723Z,57.21
2023-04-16T03:57:12.728Z,48.54
2023-04-16T03:58:12.796Z,44.10
2023-04-16T03:59:12.828Z,46.06
2023-04-16T04:00:12.867Z,44.82
2023-04-16T04:01:12.930Z,39.88
2023-04-16T04:02:13.028Z,37.24
2023-04-16T04:03:13.266Z,25.00
2023-04-16T04:04:13.167Z,27.11
2023-04-16T04:05:13.110Z,28.82
2023-04-16T04:06:13.153Z,31.05
2023-04-16T04:07:13.200Z,29.49
2023-04-16T04:08:13.255Z,26.74
2023-04-16T04:09:13.294Z,25.00
2023-04-16T04:10:13.353Z,26.22
2023-04-16T04:11:13.397Z,30.02
2023-04-16T04:12:13.462Z,31.68
2023-04-16T04:13:13.498Z,28.57
2023-04-16T04:14:13.542Z,25.00
2023-04-16T04:15:13.599Z,27.19
2023-04-16T04:16:13.648Z,28.13
2023-04-16T04:17:13.704Z,28.94
2023-04-16T04:18:13.743Z,28.83
2023-04-16T04:19:13.794Z,25.18
2023-04-16T04:20:13.844Z,28.36
2023-04-16T04:21:13.879Z,28.99
2023-04-16T04:22:13.934Z,32.45
2023-04-16T04:23:14.002Z,34.14
2023-04-16T04:24:14.036Z,29.21
2023-04-16T04:25:14.093Z,25.17
2023-04-16T04:26:14.211Z,29.76
2023-04-16T04:27:14.193Z,31.63
2023-04-16T04:28:14.258Z,32.45
2023-04-16T04:29:14.284Z,34.28
2023-04-16T04:30:14.347Z,25.00
2023-04-16T04:31:14.430Z,28.48
2023-04-16T04:32:14.456Z,31.53
2023-04-16T04:33:14.505Z,36.21
2023-04-16T04:34:14.556Z,34.15
2023-04-16T04:35:14.616Z,37.26
2023-04-16T04:36:14.662Z,30.13
2023-04-16T04:37:14.769Z,25.85
2023-04-16T04:38:16.202Z,33.28
2023-04-16T04:39:14.840Z,33.33
2023-04-16T04:40:14.883Z,32.63
2023-04-16T04:41:14.957Z,25.23
2023-04-16T04:42:15.133Z,25.90
2023-04-16T04:43:15.087Z,28.52
2023-04-16T04:44:15.098Z,31.14
2023-04-16T04:45:15.154Z,34.85
2023-04-16T04:46:15.239Z,25.45
2023-04-16T04:47:15.276Z,25.76
2023-04-16T04:48:15.294Z,29.91
2023-04-16T04:49:15.354Z,31.46
2023-04-16T04:50:15.404Z,33.20
2023-04-16T04:51:15.454Z,33.69
2023-04-16T04:52:15.502Z,29.10
2023-04-16T04:53:15.564Z,26.34
2023-04-16T04:54:15.633Z,30.43
2023-04-16T04:55:15.686Z,31.18
2023-04-16T04:56:15.761Z,34.15
2023-04-16T04:57:15.795Z,31.06
2023-04-16T04:58:15.850Z,25.58
2023-04-16T04:59:15.905Z,26.01
2023-04-16T05:00:15.961Z,26.80
2023-04-16T05:01:16.038Z,36.00
2023-04-16T05:02:16.174Z,31.14
2023-04-16T05:03:16.246Z,25.80
2023-04-16T05:04:16.287Z,28.70
2023-04-16T05:05:16.383Z,32.32
2023-04-16T05:06:16.290Z,36.24
2023-04-16T05:07:16.381Z,36.21
2023-04-16T05:08:16.416Z,30.98
2023-04-16T05:09:16.468Z,26.19
2023-04-16T05:10:16.507Z,26.73
2023-04-16T05:11:16.558Z,32.63
2023-04-16T05:12:16.613Z,35.03
2023-04-16T05:13:16.729Z,31.80
2023-04-16T05:14:16.739Z,26.20
2023-04-16T05:15:16.792Z,27.72
2023-04-16T05:16:16.865Z,27.71
2023-04-16T05:17:16.911Z,31.84
2023-04-16T05:18:16.955Z,37.43
2023-04-16T05:19:17.020Z,30.14
2023-04-16T05:20:17.051Z,26.99
2023-04-16T05:21:17.140Z,31.92
2023-04-16T05:22:17.183Z,36.06
2023-04-16T05:23:17.231Z,38.88
2023-04-16T05:24:17.278Z,33.80
2023-04-16T05:25:17.334Z,26.92
2023-04-16T05:26:17.397Z,28.52
2023-04-16T05:27:17.464Z,31.46
2023-04-16T05:28:17.502Z,34.14
2023-04-16T05:29:17.572Z,38.52
2023-04-16T05:30:17.617Z,31.93
2023-04-16T05:31:17.775Z,32.80
2023-04-16T05:32:17.797Z,35.92
2023-04-16T05:33:17.790Z,39.82
2023-04-16T05:34:17.854Z,41.62
2023-04-16T05:35:17.969Z,36.19
2023-04-16T05:36:17.966Z,35.78
2023-04-16T05:37:18.037Z,36.99
2023-04-16T05:38:18.103Z,37.81
2023-04-16T05:39:18.160Z,43.02
2023-04-16T05:40:18.212Z,42.66
2023-04-16T05:41:18.275Z,40.73
2023-04-16T05:42:18.328Z,35.12
2023-04-16T05:43:18.415Z,36.30
2023-04-16T05:44:18.471Z,36.90
2023-04-16T05:45:18.516Z,38.80
2023-04-16T05:46:18.605Z,40.26
2023-04-16T05:47:18.706Z,33.37
2023-04-16T05:48:18.706Z,37.25
2023-04-16T05:49:18.811Z,39.92
2023-04-16T05:50:18.842Z,43.14
2023-04-16T05:51:18.879Z,42.01
2023-04-16T05:52:18.936Z,39.45
2023-04-16T05:53:19.017Z,40.39
2023-04-16T05:54:19.053Z,43.35
2023-04-16T05:55:19.113Z,45.42
2023-04-16T05:56:19.160Z,49.80
2023-04-16T05:57:19.227Z,48.12
2023-04-16T05:58:19.294Z,47.96
2023-04-16T05:59:19.354Z,48.78
2023-04-16T06:00:19.432Z,52.18
2023-04-16T06:01:19.471Z,49.68
2023-04-16T06:02:19.601Z,56.37
2023-04-16T06:03:19.660Z,49.43
2023-04-16T06:04:19.740Z,48.51
2023-04-16T06:05:19.754Z,48.91
2023-04-16T06:06:19.773Z,51.32
2023-04-16T06:07:19.823Z,56.72
2023-04-16T06:08:19.876Z,50.65
2023-04-16T06:09:19.935Z,47.79
2023-04-16T06:10:20.007Z,50.57
2023-04-16T06:11:20.058Z,52.82
2023-04-16T06:12:20.132Z,56.57
2023-04-16T06:13:20.185Z,54.63
2023-04-16T06:14:20.284Z,50.40
2023-04-16T06:15:20.294Z,48.82
2023-04-16T06:16:20.422Z,51.52
2023-04-16T06:17:20.428Z,52.99
2023-04-16T06:18:20.483Z,54.65
2023-04-16T06:19:20.562Z,51.84
2023-04-16T06:20:20.603Z,53.27
2023-04-16T06:21:20.665Z,54.34
2023-04-16T06:22:20.730Z,55.01
2023-04-16T06:23:20.792Z,55.44
2023-04-16T06:24:20.854Z,55.45
2023-04-16T06:25:20.912Z,48.41
2023-04-16T06:26:21.009Z,50.88
2023-04-16T06:27:21.038Z,53.60
2023-04-16T06:28:21.088Z,57.77
2023-04-16T06:29:22.540Z,57.55
2023-04-16T06:30:21.165Z,56.12
2023-04-16T06:31:21.253Z,50.08
2023-04-16T06:32:21.234Z,47.93
2023-04-16T06:33:21.200Z,48.81
2023-04-16T06:34:21.205Z,53.04
2023-04-16T06:35:21.214Z,49.97
2023-04-16T06:36:21.218Z,43.10
2023-04-16T06:37:21.212Z,44.18
2023-04-16T06:38:21.244Z,43.83
2023-04-16T06:39:21.241Z,44.69
2023-04-16T06:40:21.253Z,48.61
2023-04-16T06:41:21.248Z,41.69
2023-04-16T06:42:21.248Z,41.57
2023-04-16T06:43:21.265Z,43.43
2023-04-16T06:44:21.295Z,44.95
2023-04-16T06:45:21.294Z,44.40
2023-04-16T06:46:21.352Z,43.79
2023-04-16T06:47:21.324Z,39.29
2023-04-16T06:48:21.300Z,36.45
2023-04-16T06:49:21.301Z,41.56
2023-04-16T06:50:21.320Z,39.34
2023-04-16T06:51:21.330Z,39.89
2023-04-16T06:52:21.345Z,31.49
2023-04-16T06:53:21.341Z,30.37
2023-04-16T06:54:21.368Z,31.14
2023-04-16T06:55:21.389Z,31.77
2023-04-16T06:56:21.418Z,34.32
2023-04-16T06:57:21.485Z,26.96
2023-04-16T06:58:21.523Z,25.71
2023-04-16T06:59:21.589Z,30.68
2023-04-16T07:00:21.659Z,30.31
2023-04-16T07:01:21.760Z,32.90
2023-04-16T07:02:21.891Z,33.70
2023-04-16T07:03:21.955Z,28.04
2023-04-16T07:04:21.959Z,28.73
2023-04-16T07:05:21.975Z,28.36
2023-04-16T07:06:22.039Z,31.08
2023-04-16T07:07:22.102Z,34.71
2023-04-16T07:08:22.154Z,32.70
2023-04-16T07:09:22.229Z,31.31
2023-04-16T07:10:22.292Z,28.02
2023-04-16T07:11:22.358Z,28.62
2023-04-16T07:12:23.005Z,29.56
2023-04-16T07:13:22.496Z,23.89
2023-04-16T07:14:22.545Z,25.00
2023-04-16T07:15:22.614Z,26.68
2023-04-16T07:16:22.712Z,31.35
2023-04-16T07:17:22.714Z,33.12
2023-04-16T07:18:22.787Z,34.75
2023-04-16T07:19:22.836Z,27.73
2023-04-16T07:20:22.921Z,30.97
2023-04-16T07:21:22.948Z,33.60
2023-04-16T07:22:23.011Z,31.11
2023-04-16T07:23:23.062Z,31.80
2023-04-16T07:24:23.133Z,29.60
2023-04-16T07:25:23.200Z,29.39
2023-04-16T07:26:23.267Z,27.71
2023-04-16T07:27:23.302Z,30.82
2023-04-16T07:28:23.363Z,32.41
2023-04-16T07:29:23.418Z,32.60
2023-04-16T07:30:23.484Z,32.26
2023-04-16T07:31:23.573Z,34.67
2023-04-16T07:32:23.719Z,35.89
2023-04-16T07:33:23.605Z,35.94
2023-04-16T07:34:23.642Z,34.90
2023-04-16T07:35:23.649Z,34.79
2023-04-16T07:36:23.658Z,35.49
2023-04-16T07:37:23.673Z,34.23
2023-04-16T07:38:23.685Z,35.26
2023-04-16T07:39:23.702Z,33.33
2023-04-16T07:40:23.795Z,32.71
2023-04-16T07:41:23.742Z,27.10
2023-04-16T07:42:23.752Z,31.91
2023-04-16T07:43:23.763Z,31.40
2023-04-16T07:44:23.779Z,26.67
2023-04-16T07:45:23.806Z,31.93
2023-04-16T07:46:24.987Z,30.62
2023-04-16T07:47:23.882Z,30.45
2023-04-16T07:48:23.842Z,32.61
2023-04-16T07:49:23.847Z,30.48
2023-04-16T07:50:23.884Z,29.75
2023-04-16T07:51:23.882Z,31.60
2023-04-16T07:52:23.889Z,29.87
2023-04-16T07:53:23.912Z,27.12
2023-04-16T07:54:23.952Z,24.25
2023-04-16T07:55:23.956Z,31.35
2023-04-16T07:56:24.125Z,28.57
2023-04-16T07:57:23.999Z,26.69
2023-04-16T07:58:24.002Z,31.71
2023-04-16T07:59:24.619Z,30.07
2023-04-16T08:00:24.065Z,29.95
2023-04-16T08:01:24.071Z,31.09
2023-04-16T08:02:24.216Z,33.21
2023-04-16T08:03:24.358Z,30.46
2023-04-16T08:04:24.340Z,30.47
2023-04-16T08:05:24.184Z,30.39
2023-04-16T08:06:24.136Z,33.62
2023-04-16T08:07:24.143Z,33.90
2023-04-16T08:08:24.147Z,27.86
2023-04-16T08:09:24.155Z,31.54
2023-04-16T08:10:24.198Z,31.91
2023-04-16T08:11:24.185Z,30.16
2023-04-16T08:12:24.188Z,31.38
2023-04-16T08:13:24.209Z,32.64
2023-04-16T08:14:24.230Z,30.19
2023-04-16T08:15:24.253Z,33.44
2023-04-16T08:16:24.378Z,31.44
2023-04-16T08:17:24.292Z,28.75
2023-04-16T08:18:24.269Z,28.49
2023-04-16T08:19:24.292Z,27.77
2023-04-16T08:20:24.305Z,26.12
2023-04-16T08:21:24.313Z,25.00
2023-04-16T08:22:24.337Z,30.57
2023-04-16T08:23:24.342Z,30.32
2023-04-16T08:24:24.352Z,24.89
2023-04-16T08:25:24.418Z,31.28
2023-04-16T08:26:24.390Z,28.84
2023-04-16T08:27:24.417Z,28.76
2023-04-16T08:28:24.419Z,25.99
2023-04-16T08:29:24.438Z,29.11
2023-04-16T08:30:24.447Z,25.21
2023-04-16T08:31:24.582Z,25.52
2023-04-16T08:32:24.505Z,26.88
2023-04-16T08:33:24.485Z,28.16
2023-04-16T08:34:24.503Z,30.73
2023-04-16T08:35:24.513Z,33.92
2023-04-16T08:36:24.518Z,25.67
2023-04-16T08:37:24.522Z,27.22
2023-04-16T08:38:24.526Z,29.11
2023-04-16T08:39:24.524Z,32.47
2023-04-16T08:40:24.541Z,37.24
2023-04-16T08:41:24.553Z,36.00
2023-04-16T08:42:24.562Z,37.73
2023-04-16T08:43:24.578Z,37.78
2023-04-16T08:44:24.593Z,34.95
2023-04-16T08:45:24.671Z,36.20
2023-04-16T08:46:24.672Z,35.62
2023-04-16T08:47:24.667Z,38.13
2023-04-16T08:48:24.651Z,34.98
2023-04-16T08:49:24.664Z,39.69
2023-04-16T08:50:24.680Z,34.20
2023-04-16T08:51:24.697Z,31.35
2023-04-16T08:52:24.726Z,40.22
2023-04-16T08:53:24.718Z,40.70
2023-04-16T08:54:24.731Z,35.63
2023-04-16T08:55:24.740Z,34.41
2023-04-16T08:56:24.775Z,37.17
2023-04-16T08:57:24.767Z,39.71
2023-04-16T08:58:24.772Z,35.83
2023-04-16T08:59:24.772Z,38.91
2023-04-16T09:00:24.779Z,42.85
2023-04-16T09:01:24.818Z,44.93
2023-04-16T09:02:24.903Z,46.79
2023-04-16T09:03:24.955Z,50.25
2023-04-16T09:04:24.992Z,53.92
2023-04-16T09:05:24.888Z,59.48
2023-04-16T09:06:25.008Z,63.33
2023-04-16T09:07:24.900Z,68.44
2023-04-16T09:08:24.921Z,67.18
2023-04-16T09:09:25.023Z,72.77
2023-04-16T09:10:25.044Z,75.27
2023-04-16T09:11:24.986Z,80.36
2023-04-16T09:12:24.994Z,84.93
2023-04-16T09:13:25.009Z,88.28
2023-04-16T09:14:25.033Z,92.27
2023-04-16T09:15:25.042Z,91.54
2023-04-16T09:16:25.156Z,97.47
2023-04-16T09:17:25.121Z,102.79
2023-04-16T09:18:25.125Z,101.49
2023-04-16T09:19:25.113Z,105.28
2023-04-16T09:20:25.204Z,107.33
2023-04-16T09:21:25.205Z,108.37
2023-04-16T09:22:25.202Z,108.05
2023-04-16T09:23:25.228Z,110.03
2023-04-16T09:24:25.301Z,116.16
2023-04-16T09:25:25.202Z,117.96
2023-04-16T09:26:25.333Z,116.39
2023-04-16T09:27:26.185Z,124.22
2023-04-16T09:28:25.279Z,124.39
2023-04-16T09:29:25.306Z,125.31
2023-04-16T09:30:25.307Z,128.38
2023-04-16T09:31:25.354Z,127.26
2023-04-16T09:32:25.391Z,130.55
2023-04-16T09:33:25.362Z,131.62
2023-04-16T09:34:25.385Z,131.87
2023-04-16T09:35:25.389Z,131.98
2023-04-16T09:36:25.425Z,133.12
2023-04-16T09:37:25.413Z,131.93
2023-04-16T09:38:25.421Z,132.49
2023-04-16T09:39:25.430Z,134.60
2023-04-16T09:40:25.443Z,138.33
2023-04-16T09:41:25.455Z,142.72
2023-04-16T09:42:25.475Z,141.19
2023-04-16T09:43:25.492Z,139.67
2023-04-16T09:44:25.490Z,142.81
2023-04-16T09:45:25.494Z,142.52
2023-04-16T09:46:25.535Z,145.00
2023-04-16T09:47:25.571Z,147.87
2023-04-16T09:48:25.511Z,149.62
2023-04-16T09:49:25.522Z,147.37
2023-04-16T09:50:25.534Z,145.37
2023-04-16T09:51:25.550Z,150.64
2023-04-16T09:52:25.537Z,149.39
2023-04-16T09:53:25.547Z,147.88
2023-04-16T09:54:25.550Z,150.40
2023-04-16T09:55:25.542Z,152.77
2023-04-16T09:56:25.553Z,149.33
2023-04-16T09:57:25.555Z,152.39
2023-04-16T09:58:25.559Z,149.30
2023-04-16T09:59:25.579Z,149.20
2023-04-16T10:00:25.614Z,151.66
2023-04-16T10:01:25.648Z,147.29
2023-04-16T10:02:25.696Z,150.68
2023-04-16T10:03:25.684Z,151.86
2023-04-16T10:04:25.664Z,152.38
2023-04-16T10:05:25.630Z,152.31
2023-04-16T10:06:25.639Z,153.11
2023-04-16T10:07:25.649Z,153.89
2023-04-16T10:08:25.688Z,157.94
2023-04-16T10:09:25.658Z,157.34
2023-04-16T10:10:25.673Z,157.55
2023-04-16T10:11:25.690Z,157.91
2023-04-16T10:12:25.695Z,158.00
2023-04-16T10:13:25.709Z,157.65
2023-04-16T10:14:25.725Z,158.17
2023-04-16T10:15:25.753Z,157.80
2023-04-16T10:16:25.794Z,159.06
2023-04-16T10:17:25.791Z,160.35
2023-04-16T10:18:25.757Z,162.09
2023-04-16T10:19:25.759Z,162.78
2023-04-16T10:20:25.765Z,163.14
2023-04-16T10:21:25.765Z,161.56
2023-04-16T10:22:25.778Z,163.45
2023-04-16T10:23:25.800Z,163.30
2023-04-16T10:24:25.799Z,163.12
2023-04-16T10:25:25.809Z,165.56
2023-04-16T10:26:25.869Z,161.63
2023-04-16T10:27:25.950Z,162.34
2023-04-16T10:28:26.013Z,164.54
2023-04-16T10:29:26.074Z,165.37
2023-04-16T10:30:26.164Z,163.12
2023-04-16T10:31:26.303Z,166.53
2023-04-16T10:32:26.300Z,164.13
2023-04-16T10:33:26.312Z,163.50
2023-04-16T10:34:26.391Z,160.80
2023-04-16T10:35:26.501Z,167.16
2023-04-16T10:36:26.468Z,163.07
2023-04-16T10:37:26.482Z,164.00
2023-04-16T10:38:26.515Z,163.26
2023-04-16T10:39:26.583Z,162.97
2023-04-16T10:40:26.675Z,169.05
2023-04-16T10:41:26.737Z,166.84
2023-04-16T10:42:26.789Z,167.49
2023-04-16T10:43:26.853Z,168.39
2023-04-16T10:44:26.922Z,163.76
2023-04-16T10:45:27.005Z,167.64
2023-04-16T10:46:27.158Z,165.40
2023-04-16T10:47:27.142Z,164.00
2023-04-16T10:48:31.016Z,164.08
2023-04-16T10:49:28.205Z,164.17
2023-04-16T10:50:27.210Z,164.47
2023-04-16T10:51:27.206Z,166.75
2023-04-16T10:52:27.212Z,164.37
2023-04-16T10:53:27.221Z,165.12
2023-04-16T10:54:27.240Z,164.46
2023-04-16T10:55:27.260Z,165.15
2023-04-16T10:56:27.283Z,166.66
2023-04-16T10:57:27.278Z,166.13
2023-04-16T10:58:27.283Z,164.88
2023-04-16T10:59:27.301Z,167.05
2023-04-16T11:00:27.316Z,164.46
2023-04-16T11:01:27.384Z,163.55
2023-04-16T11:02:27.933Z,166.02
2023-04-16T11:03:27.644Z,162.00
2023-04-16T11:04:27.737Z,164.32
2023-04-16T11:05:27.626Z,165.41
2023-04-16T11:06:27.727Z,165.37
2023-04-16T11:07:27.797Z,162.93
2023-04-16T11:08:27.852Z,163.48
2023-04-16T11:09:27.949Z,164.81
2023-04-16T11:10:28.016Z,162.67
2023-04-16T11:11:28.096Z,162.02
2023-04-16T11:12:28.161Z,163.78
2023-04-16T11:13:28.235Z,163.38
2023-04-16T11:14:28.296Z,163.96
2023-04-16T11:15:28.378Z,164.60
2023-04-16T11:16:28.492Z,165.13
2023-04-16T11:17:28.505Z,160.44
2023-04-16T11:18:28.547Z,158.80
2023-04-16T11:19:28.611Z,165.57
2023-04-16T11:20:28.657Z,162.06
2023-04-16T11:21:28.759Z,162.24
2023-04-16T11:22:28.831Z,163.88
2023-04-16T11:23:28.873Z,165.42
2023-04-16T11:24:28.943Z,165.31
2023-04-16T11:25:29.014Z,166.04
2023-04-16T11:26:29.116Z,161.15
2023-04-16T11:27:29.199Z,161.59
2023-04-16T11:28:29.242Z,163.47
2023-04-16T11:29:29.325Z,163.27
2023-04-16T11:30:29.414Z,167.05
2023-04-16T11:31:29.510Z,161.63
2023-04-16T11:32:29.646Z,160.51
2023-04-16T11:33:29.637Z,161.58
2023-04-16T11:34:29.712Z,163.31
2023-04-16T11:35:29.802Z,165.72
2023-04-16T11:36:29.799Z,165.81
2023-04-16T11:37:29.840Z,165.99
2023-04-16T11:38:29.814Z,167.26
2023-04-16T11:39:29.814Z,165.71
2023-04-16T11:40:29.818Z,166.05
2023-04-16T11:41:29.824Z,169.40
2023-04-16T11:42:29.865Z,163.13
2023-04-16T11:43:29.841Z,168.08
2023-04-16T11:44:29.928Z,168.86
2023-04-16T11:45:29.986Z,168.91
2023-04-16T11:46:30.146Z,168.10
2023-04-16T11:47:30.373Z,167.06
2023-04-16T11:48:30.212Z,166.61
2023-04-16T11:49:30.284Z,163.58
2023-04-16T11:50:30.346Z,167.61
2023-04-16T11:51:30.445Z,168.91
2023-04-16T11:52:30.513Z,167.64
2023-04-16T11:53:30.523Z,167.87
2023-04-16T11:54:30.523Z,167.95
2023-04-16T11:55:30.544Z,168.47
2023-04-16T11:56:30.551Z,168.19
2023-04-16T11:57:30.595Z,171.58
2023-04-16T11:58:30.590Z,168.63
2023-04-16T11:59:30.602Z,168.30
2023-04-16T12:00:30.583Z,168.48
2023-04-16T12:01:30.605Z,167.11
2023-04-16T12:02:30.681Z,168.14
2023-04-16T12:03:30.910Z,168.20
2023-04-16T12:04:30.722Z,168.34
2023-04-16T12:05:30.746Z,168.21
2023-04-16T12:06:30.840Z,169.07
2023-04-16T12:07:30.692Z,168.06
2023-04-16T12:08:30.719Z,168.52
2023-04-16T12:09:30.716Z,166.96
2023-04-16T12:10:30.783Z,170.57
2023-04-16T12:11:30.810Z,170.63
2023-04-16T12:12:31.636Z,166.29
2023-04-16T12:13:30.960Z,165.11
2023-04-16T12:14:31.044Z,165.01
2023-04-16T12:15:31.117Z,166.96
2023-04-16T12:16:31.216Z,168.20
2023-04-16T12:17:31.377Z,165.17
2023-04-16T12:18:31.345Z,168.04
2023-04-16T12:19:31.409Z,162.49
2023-04-16T12:20:31.475Z,168.50
2023-04-16T12:21:31.557Z,163.28
2023-04-16T12:22:31.629Z,166.13
2023-04-16T12:23:31.723Z,161.32
2023-04-16T12:24:31.706Z,161.66
2023-04-16T12:25:31.719Z,162.42
2023-04-16T12:26:31.738Z,161.61
2023-04-16T12:27:31.753Z,162.27
2023-04-16T12:28:31.749Z,162.82
2023-04-16T12:29:31.766Z,164.58
2023-04-16T12:30:31.780Z,165.37
2023-04-16T12:31:31.782Z,165.05
2023-04-16T12:32:31.834Z,165.16
2023-04-16T12:33:32.138Z,165.74
2023-04-16T12:34:48.607Z,165.92
2023-04-16T12:35:32.794Z,165.26
2023-04-16T12:36:31.794Z,165.45
2023-04-16T12:37:31.795Z,164.40
2023-04-16T12:38:31.801Z,165.54
2023-04-16T12:39:31.815Z,165.02
2023-04-16T12:40:31.825Z,165.25
2023-04-16T12:41:31.825Z,167.20
2023-04-16T12:42:31.835Z,164.94
2023-04-16T12:43:31.856Z,160.37
2023-04-16T12:44:31.917Z,165.89
2023-04-16T12:45:32.067Z,162.61